Terminal Aerodrome Forecast
Issued by NWS Amarillo, TX

Home | Current Version | Previous Version | Text Only | Print | Product List | Glossary On
Versions: 1 2 3 4 5 6 7 8 9 10 11 12 13 14
000
FTUS44 KAMA 092300
TAFAMA
TAF
KAMA 092338Z 1000/1024 16014G23KT P6SM SCT060 BKN300
     FM100200 17011KT P6SM BKN300
     FM101400 19018G26KT P6SM SCT070=

USA.gov is the U.S. government's official web portal to all federal, state and local government web resources and services.